createdAt,value
2023-04-28T00:02:31.303Z,100.00
2023-04-28T00:05:21.841Z,100.00
2023-04-28T00:07:57.795Z,100.00
2023-04-28T00:10:43.514Z,100.00
2023-04-28T00:13:21.890Z,100.00
2023-04-28T00:16:07.820Z,100.00
2023-04-28T00:18:34.625Z,100.00
2023-04-28T00:21:13.142Z,100.00
2023-04-28T00:23:47.863Z,100.00
2023-04-28T00:26:17.744Z,100.00
2023-04-28T00:28:53.457Z,100.00
2023-04-28T00:31:35.634Z,100.00
2023-04-28T00:34:19.729Z,100.00
2023-04-28T00:37:03.782Z,100.00
2023-04-28T00:39:47.619Z,100.00
2023-04-28T00:42:20.288Z,100.00
2023-04-28T00:44:52.927Z,100.00
2023-04-28T00:47:33.078Z,100.00
2023-04-28T00:50:17.251Z,100.00
2023-04-28T00:52:51.498Z,100.00
2023-04-28T00:55:25.020Z,100.00
2023-04-28T00:57:56.812Z,100.00
2023-04-28T01:00:35.011Z,100.00
2023-04-28T01:03:08.178Z,100.00
2023-04-28T01:05:53.865Z,100.00
2023-04-28T01:08:42.753Z,100.00
2023-04-28T01:11:26.972Z,100.00
2023-04-28T01:14:07.189Z,100.00
2023-04-28T01:16:49.723Z,100.00
2023-04-28T01:19:28.810Z,100.00
2023-04-28T01:22:08.143Z,100.00
2023-04-28T01:24:49.975Z,100.00
2023-04-28T01:27:25.342Z,100.00
2023-04-28T01:30:00.167Z,100.00
2023-04-28T01:32:35.413Z,100.00
2023-04-28T01:35:11.378Z,100.00
2023-04-28T01:37:53.638Z,100.00
2023-04-28T01:40:29.370Z,100.00
2023-04-28T01:43:07.770Z,100.00
2023-04-28T01:45:57.337Z,100.00
2023-04-28T01:48:34.799Z,100.00
2023-04-28T01:51:26.152Z,100.00
2023-04-28T01:54:05.872Z,100.00
2023-04-28T01:56:44.767Z,100.00
2023-04-28T01:59:23.893Z,100.00
2023-04-28T02:02:03.974Z,100.00
2023-04-28T02:04:41.255Z,100.00
2023-04-28T02:07:31.965Z,100.00
2023-04-28T02:10:06.154Z,100.00
2023-04-28T02:12:42.943Z,100.00
2023-04-28T02:15:10.362Z,100.00
2023-04-28T02:17:56.784Z,100.00
2023-04-28T02:20:33.375Z,100.00
2023-04-28T02:23:16.700Z,100.00
2023-04-28T02:25:49.018Z,100.00
2023-04-28T02:28:18.685Z,100.00
2023-04-28T02:30:58.935Z,100.00
2023-04-28T02:33:29.749Z,100.00
2023-04-28T02:36:19.038Z,100.00
2023-04-28T02:39:00.640Z,100.00
2023-04-28T02:41:34.743Z,100.00
2023-04-28T02:44:07.788Z,100.00
2023-04-28T02:46:37.063Z,100.00
2023-04-28T02:49:04.722Z,100.00
2023-04-28T02:51:34.642Z,100.00
2023-04-28T02:54:09.598Z,100.00
2023-04-28T02:56:44.999Z,100.00
2023-04-28T02:59:21.496Z,100.00
2023-04-28T03:01:54.851Z,100.00
2023-04-28T03:04:30.848Z,100.00
2023-04-28T03:07:00.894Z,100.00
2023-04-28T03:09:31.344Z,100.00
2023-04-28T03:12:12.172Z,100.00
2023-04-28T03:14:47.249Z,100.00
2023-04-28T03:17:20.851Z,100.00
2023-04-28T03:19:59.272Z,100.00
2023-04-28T03:22:32.193Z,100.00
2023-04-28T03:25:07.654Z,100.00
2023-04-28T03:27:49.494Z,100.00
2023-04-28T03:30:32.868Z,100.00
2023-04-28T03:33:05.834Z,100.00
2023-04-28T03:35:36.016Z,100.00
2023-04-28T03:38:02.953Z,100.00
2023-04-28T03:40:37.085Z,100.00
2023-04-28T03:43:24.728Z,100.00
2023-04-28T03:46:35.643Z,100.00
2023-04-28T03:49:11.813Z,100.00
2023-04-28T03:51:50.154Z,100.00
2023-04-28T03:54:23.618Z,100.00
2023-04-28T03:56:51.246Z,100.00
2023-04-28T03:59:35.285Z,100.00
2023-04-28T04:02:10.628Z,100.00
2023-04-28T04:04:45.653Z,100.00
2023-04-28T04:07:25.692Z,100.00
2023-04-28T04:10:04.646Z,100.00
2023-04-28T04:12:42.026Z,100.00
2023-04-28T04:15:20.730Z,100.00
2023-04-28T04:17:58.076Z,100.00
2023-04-28T04:20:38.529Z,100.00
2023-04-28T04:23:09.551Z,100.00
2023-04-28T04:25:49.680Z,100.00
2023-04-28T04:28:23.052Z,100.00
2023-04-28T04:30:55.249Z,100.00
2023-04-28T04:33:30.033Z,100.00
2023-04-28T04:36:08.309Z,100.00
2023-04-28T04:38:47.509Z,100.00
2023-04-28T04:41:22.127Z,100.00
2023-04-28T04:43:53.615Z,100.00
2023-04-28T04:46:35.478Z,100.00
2023-04-28T04:49:08.345Z,100.00
2023-04-28T04:51:43.690Z,100.00
2023-04-28T04:54:10.846Z,100.00
2023-04-28T04:56:49.305Z,100.00
2023-04-28T04:59:32.702Z,100.00
2023-04-28T05:02:10.667Z,100.00
2023-04-28T05:04:46.754Z,100.00
2023-04-28T05:07:27.943Z,100.00
2023-04-28T05:09:55.704Z,100.00
2023-04-28T05:12:38.844Z,100.00
2023-04-28T05:15:11.866Z,100.00
2023-04-28T05:17:57.842Z,100.00
2023-04-28T05:20:28.067Z,97.99
2023-04-28T05:23:12.703Z,95.60
2023-04-28T05:25:48.760Z,92.71
2023-04-28T05:28:22.176Z,92.07
2023-04-28T05:31:09.768Z,89.40
2023-04-28T05:33:44.843Z,87.68
2023-04-28T05:36:18.734Z,83.73
2023-04-28T05:38:52.163Z,82.19
2023-04-28T05:41:33.478Z,80.74
2023-04-28T05:44:14.566Z,79.94
2023-04-28T05:46:44.137Z,78.28
2023-04-28T05:49:19.421Z,73.13
2023-04-28T05:52:00.012Z,71.26
2023-04-28T05:54:34.747Z,69.64
2023-04-28T05:57:11.645Z,67.19
2023-04-28T05:59:45.394Z,64.90
2023-04-28T06:02:17.053Z,63.54
2023-04-28T06:04:52.144Z,62.46
2023-04-28T06:07:36.291Z,63.29
2023-04-28T06:10:06.492Z,62.94
2023-04-28T06:12:52.917Z,58.73
2023-04-28T06:15:28.282Z,57.84
2023-04-28T06:18:06.199Z,55.41
2023-04-28T06:20:39.317Z,54.67
2023-04-28T06:23:14.858Z,55.39
2023-04-28T06:26:08.532Z,57.16
2023-04-28T06:28:58.929Z,57.67
2023-04-28T06:31:34.414Z,55.67
2023-04-28T06:34:15.939Z,53.48
2023-04-28T06:36:51.614Z,53.70
2023-04-28T06:39:24.726Z,52.99
2023-04-28T06:42:02.375Z,49.50
2023-04-28T06:44:36.520Z,50.96
2023-04-28T06:47:12.098Z,44.91
2023-04-28T06:49:54.207Z,48.05
2023-04-28T06:52:38.648Z,46.60
2023-04-28T06:55:15.241Z,46.21
2023-04-28T06:57:53.957Z,44.47
2023-04-28T07:00:28.957Z,43.86
2023-04-28T07:03:06.927Z,42.05
2023-04-28T07:05:47.409Z,43.82
2023-04-28T07:08:27.766Z,42.65
2023-04-28T07:11:08.428Z,44.00
2023-04-28T07:13:49.387Z,44.67
2023-04-28T07:16:30.798Z,44.24
2023-04-28T07:19:09.671Z,42.74
2023-04-28T07:21:46.794Z,44.39
2023-04-28T07:24:23.642Z,41.73
2023-04-28T07:27:03.907Z,42.27
2023-04-28T07:29:42.319Z,43.22
2023-04-28T07:32:21.706Z,40.68
2023-04-28T07:35:00.604Z,40.25
2023-04-28T07:37:40.965Z,39.90
2023-04-28T07:40:15.961Z,39.52
2023-04-28T07:42:54.422Z,39.89
2023-04-28T07:45:32.635Z,42.17
2023-04-28T07:48:13.593Z,39.89
2023-04-28T07:50:48.389Z,41.69
2023-04-28T07:53:20.113Z,42.05
2023-04-28T07:55:55.864Z,41.74
2023-04-28T07:58:28.254Z,42.18
2023-04-28T08:01:05.959Z,41.10
2023-04-28T08:03:47.003Z,39.22
2023-04-28T08:06:25.077Z,37.76
2023-04-28T08:09:09.225Z,40.71
2023-04-28T08:11:49.126Z,41.46
2023-04-28T08:14:26.710Z,39.60
2023-04-28T08:17:05.790Z,41.65
2023-04-28T08:19:45.000Z,39.26
2023-04-28T08:22:26.256Z,38.66
2023-04-28T08:25:04.572Z,40.33
2023-04-28T08:27:45.347Z,39.66
2023-04-28T08:30:21.688Z,37.59
2023-04-28T08:32:57.484Z,38.36
2023-04-28T08:35:30.020Z,38.78
2023-04-28T08:38:11.188Z,38.45
2023-04-28T08:40:55.294Z,38.49
2023-04-28T08:43:35.800Z,37.77
2023-04-28T08:46:17.422Z,37.17
2023-04-28T08:49:01.894Z,34.14
2023-04-28T08:51:50.513Z,37.80
2023-04-28T08:54:36.491Z,36.43
2023-04-28T08:57:13.722Z,36.88
2023-04-28T08:59:46.916Z,38.95
2023-04-28T09:02:27.206Z,36.17
2023-04-28T09:05:00.890Z,35.07
2023-04-28T09:07:55.096Z,38.36
2023-04-28T09:10:30.089Z,36.05
2023-04-28T09:13:08.009Z,34.91
2023-04-28T09:15:51.060Z,35.38
2023-04-28T09:18:33.680Z,32.72
2023-04-28T09:21:13.462Z,35.13
2023-04-28T09:23:54.826Z,34.30
2023-04-28T09:26:54.826Z,33.75
2023-04-28T09:29:35.076Z,35.83
2023-04-28T09:32:23.339Z,32.36
2023-04-28T09:35:02.702Z,33.24
2023-04-28T09:37:46.458Z,34.04
2023-04-28T09:40:34.570Z,33.22
2023-04-28T09:43:35.568Z,33.08
2023-04-28T09:46:11.038Z,37.23
2023-04-28T09:48:49.089Z,34.20
2023-04-28T09:51:32.270Z,33.74
2023-04-28T09:54:13.045Z,36.19
2023-04-28T09:56:50.700Z,32.00
2023-04-28T09:59:37.571Z,33.30
2023-04-28T10:02:42.216Z,32.51
2023-04-28T10:05:13.357Z,32.65
2023-04-28T10:07:51.646Z,33.48
2023-04-28T10:10:25.281Z,32.23
2023-04-28T10:13:04.470Z,36.42
2023-04-28T10:15:49.501Z,34.37
2023-04-28T10:18:29.450Z,36.55
2023-04-28T10:21:07.765Z,33.76
2023-04-28T10:24:08.825Z,32.07
2023-04-28T10:27:11.519Z,31.45
2023-04-28T10:29:47.729Z,34.21
2023-04-28T10:32:33.027Z,32.52
2023-04-28T10:35:38.382Z,34.31
2023-04-28T10:38:23.865Z,32.24
2023-04-28T10:41:11.871Z,33.68
2023-04-28T10:43:55.683Z,33.13
2023-04-28T10:47:10.409Z,35.01
2023-04-28T10:50:08.126Z,35.41
2023-04-28T10:52:53.902Z,35.00
2023-04-28T10:55:39.455Z,33.66
2023-04-28T10:58:33.567Z,32.71
2023-04-28T11:01:25.322Z,31.00
2023-04-28T11:04:11.564Z,32.71
2023-04-28T11:07:14.230Z,33.74
2023-04-28T11:09:52.065Z,33.87
2023-04-28T11:12:21.428Z,33.71
2023-04-28T11:14:53.086Z,35.06
2023-04-28T11:17:46.012Z,36.73
2023-04-28T11:20:29.850Z,34.09
2023-04-28T11:23:16.963Z,34.73
2023-04-28T11:26:00.350Z,32.84
2023-04-28T11:28:36.677Z,33.01
2023-04-28T11:31:26.472Z,35.36
2023-04-28T11:34:05.182Z,35.45
2023-04-28T11:36:41.160Z,35.00
2023-04-28T11:39:30.198Z,32.48
2023-04-28T11:42:10.326Z,32.36
2023-04-28T11:44:58.724Z,34.40
2023-04-28T11:47:34.844Z,36.89
2023-04-28T11:50:19.076Z,35.25
2023-04-28T11:52:57.923Z,38.04
2023-04-28T11:55:38.205Z,35.80
2023-04-28T11:58:29.269Z,33.92
2023-04-28T12:01:20.444Z,35.35
2023-04-28T12:03:58.574Z,35.72
2023-04-28T12:06:34.709Z,34.07
2023-04-28T12:09:25.158Z,35.94
2023-04-28T12:12:05.538Z,32.07
2023-04-28T12:15:04.404Z,34.01
2023-04-28T12:17:47.251Z,33.58
2023-04-28T12:20:49.257Z,31.17
2023-04-28T12:23:39.942Z,33.68
2023-04-28T12:26:13.922Z,32.06
2023-04-28T12:28:57.139Z,35.52
2023-04-28T12:31:38.167Z,34.23
2023-04-28T12:34:13.923Z,36.26
2023-04-28T12:36:57.692Z,34.90
2023-04-28T12:39:33.382Z,32.77
2023-04-28T12:42:14.611Z,34.24
2023-04-28T12:44:50.660Z,35.13
2023-04-28T12:47:28.196Z,35.88
2023-04-28T12:50:03.552Z,36.14
2023-04-28T12:52:43.927Z,37.10
2023-04-28T12:55:25.785Z,37.97
2023-04-28T12:58:04.696Z,37.37
2023-04-28T13:00:47.196Z,38.14
2023-04-28T13:03:31.575Z,36.10
2023-04-28T13:06:13.414Z,36.99
2023-04-28T13:08:55.711Z,35.06
2023-04-28T13:11:38.296Z,33.96
2023-04-28T13:14:14.028Z,35.04
2023-04-28T13:16:51.131Z,35.80
2023-04-28T13:19:29.771Z,33.10
2023-04-28T13:22:13.067Z,36.00
2023-04-28T13:24:51.861Z,33.88
2023-04-28T13:27:33.523Z,35.79
2023-04-28T13:30:17.392Z,37.43
2023-04-28T13:32:57.705Z,35.70
2023-04-28T13:35:38.931Z,38.22
2023-04-28T13:38:25.948Z,37.07
2023-04-28T13:41:07.282Z,36.26
2023-04-28T13:43:44.840Z,37.57
2023-04-28T13:46:30.022Z,36.53
2023-04-28T13:49:07.959Z,37.12
2023-04-28T13:51:45.861Z,39.64
2023-04-28T13:54:23.728Z,37.25
2023-04-28T13:57:03.856Z,40.12
2023-04-28T13:59:47.825Z,37.26
2023-04-28T14:02:31.997Z,39.96
2023-04-28T14:05:04.947Z,40.35
2023-04-28T14:07:40.847Z,39.97
2023-04-28T14:10:19.674Z,38.47
2023-04-28T14:12:52.083Z,39.88
2023-04-28T14:15:32.585Z,40.53
2023-04-28T14:18:10.225Z,39.87
2023-04-28T14:20:54.725Z,41.10
2023-04-28T14:23:27.199Z,39.21
2023-04-28T14:26:18.922Z,39.79
2023-04-28T14:28:59.494Z,43.78
2023-04-28T14:31:59.842Z,41.11
2023-04-28T14:34:49.603Z,40.54
2023-04-28T14:37:36.006Z,42.11
2023-04-28T14:40:14.620Z,40.69
2023-04-28T14:42:49.836Z,43.15
2023-04-28T14:45:34.644Z,42.19
2023-04-28T14:48:16.172Z,44.03
2023-04-28T14:50:51.461Z,43.54
2023-04-28T14:53:34.954Z,43.06
2023-04-28T14:56:18.969Z,43.92
2023-04-28T14:58:57.457Z,45.59
2023-04-28T15:01:43.865Z,43.02
2023-04-28T15:04:18.855Z,46.11
2023-04-28T15:06:49.060Z,42.47
2023-04-28T15:09:29.844Z,43.60
2023-04-28T15:12:05.326Z,44.77
2023-04-28T15:14:44.125Z,46.06
2023-04-28T15:17:30.839Z,46.11
2023-04-28T15:19:57.910Z,45.11
2023-04-28T15:22:27.488Z,41.72
2023-04-28T15:25:05.208Z,43.51
2023-04-28T15:27:45.037Z,45.66
2023-04-28T15:30:20.380Z,47.41
2023-04-28T15:33:07.137Z,44.87
2023-04-28T15:35:39.261Z,43.97
2023-04-28T15:38:18.013Z,47.48
2023-04-28T15:40:53.390Z,43.50
2023-04-28T15:43:33.136Z,42.92
2023-04-28T15:46:11.642Z,46.42
2023-04-28T15:48:43.991Z,50.31
2023-04-28T15:51:20.000Z,47.28
2023-04-28T15:53:55.975Z,45.89
2023-04-28T15:56:31.834Z,48.49
2023-04-28T15:59:14.868Z,46.97
2023-04-28T16:01:47.688Z,45.79
2023-04-28T16:04:25.908Z,47.01
2023-04-28T16:06:55.887Z,47.53
2023-04-28T16:09:34.652Z,49.13
2023-04-28T16:12:12.777Z,48.46
2023-04-28T16:15:01.681Z,49.85
2023-04-28T16:17:38.782Z,48.83
2023-04-28T16:20:20.659Z,47.33
2023-04-28T16:23:00.933Z,48.40
2023-04-28T16:25:36.571Z,51.01
2023-04-28T16:28:20.215Z,47.17
2023-04-28T16:30:59.780Z,50.01
2023-04-28T16:33:40.954Z,51.03
2023-04-28T16:36:16.883Z,51.55
2023-04-28T16:38:52.672Z,51.47
2023-04-28T16:41:31.652Z,52.52
2023-04-28T16:44:00.182Z,54.00
2023-04-28T16:46:37.949Z,54.14
2023-04-28T16:49:12.998Z,54.27
2023-04-28T16:51:59.818Z,54.92
2023-04-28T16:54:43.676Z,55.67
2023-04-28T16:57:21.568Z,53.70
2023-04-28T17:00:02.102Z,53.83
2023-04-28T17:02:44.310Z,54.41
2023-04-28T17:05:19.011Z,53.73
2023-04-28T17:07:57.688Z,55.03
2023-04-28T17:10:35.787Z,55.14
2023-04-28T17:13:16.661Z,55.41
2023-04-28T17:15:57.876Z,56.91
2023-04-28T17:18:31.244Z,57.72
2023-04-28T17:21:11.903Z,56.76
2023-04-28T17:23:51.329Z,56.18
2023-04-28T17:26:31.997Z,57.58
2023-04-28T17:29:07.807Z,59.79
2023-04-28T17:31:45.514Z,59.80
2023-04-28T17:34:27.028Z,61.49
2023-04-28T17:37:01.888Z,61.52
2023-04-28T17:39:32.826Z,61.18
2023-04-28T17:42:25.333Z,60.59
2023-04-28T17:45:01.304Z,60.54
2023-04-28T17:47:53.152Z,61.35
2023-04-28T17:50:28.928Z,59.86
2023-04-28T17:53:06.764Z,58.55
2023-04-28T17:55:42.877Z,57.30
2023-04-28T17:58:23.667Z,60.63
2023-04-28T18:01:11.180Z,63.49
2023-04-28T18:03:51.407Z,66.58
2023-04-28T18:06:32.262Z,67.40
2023-04-28T18:09:16.053Z,66.05
2023-04-28T18:11:58.774Z,65.53
2023-04-28T18:14:44.380Z,67.14
2023-04-28T18:17:23.339Z,67.77
2023-04-28T18:20:11.638Z,67.28
2023-04-28T18:22:49.834Z,65.84
2023-04-28T18:25:28.422Z,65.59
2023-04-28T18:28:22.007Z,65.46
2023-04-28T18:31:00.199Z,64.44
2023-04-28T18:33:40.652Z,64.64
2023-04-28T18:36:26.669Z,64.38
2023-04-28T18:39:07.916Z,63.63
2023-04-28T18:41:47.145Z,66.12
2023-04-28T18:44:31.174Z,66.25
2023-04-28T18:47:06.959Z,65.34
2023-04-28T18:49:45.723Z,65.83
2023-04-28T18:52:27.087Z,66.64
2023-04-28T18:55:03.735Z,65.52
2023-04-28T18:57:52.761Z,67.26
2023-04-28T19:00:38.005Z,67.71
2023-04-28T19:03:16.760Z,69.45
2023-04-28T19:05:56.637Z,70.92
2023-04-28T19:08:32.865Z,72.22
2023-04-28T19:11:13.964Z,73.17
2023-04-28T19:13:45.719Z,75.06
2023-04-28T19:16:26.323Z,77.43
2023-04-28T19:19:02.530Z,80.64
2023-04-28T19:21:44.066Z,84.25
2023-04-28T19:24:24.467Z,86.32
2023-04-28T19:26:58.719Z,85.89
2023-04-28T19:29:37.009Z,86.03
2023-04-28T19:32:12.530Z,86.97
2023-04-28T19:34:56.410Z,86.56
2023-04-28T19:37:34.233Z,87.14
2023-04-28T19:40:15.195Z,89.14
2023-04-28T19:42:56.684Z,88.51
2023-04-28T19:45:35.170Z,88.58
2023-04-28T19:48:20.756Z,89.73
2023-04-28T19:50:58.210Z,91.51
2023-04-28T19:53:40.746Z,92.36
2023-04-28T19:56:18.775Z,92.76
2023-04-28T19:58:57.451Z,93.80
2023-04-28T20:04:14.224Z,93.95
2023-04-28T20:06:56.306Z,91.92
2023-04-28T20:09:33.170Z,91.17
2023-04-28T20:12:10.597Z,91.34
2023-04-28T20:14:41.619Z,90.94
2023-04-28T20:17:16.351Z,90.47
2023-04-28T20:20:05.294Z,89.19
2023-04-28T20:22:48.950Z,88.99
2023-04-28T20:25:31.142Z,88.77
2023-04-28T20:28:08.760Z,87.90
2023-04-28T20:30:43.615Z,86.84
2023-04-28T20:33:27.356Z,85.33
2023-04-28T20:35:59.769Z,86.14
2023-04-28T20:38:32.435Z,87.26
2023-04-28T20:41:10.535Z,87.92
2023-04-28T20:43:55.178Z,90.59
2023-04-28T20:46:32.874Z,91.86
2023-04-28T20:49:11.000Z,93.23
2023-04-28T20:51:52.744Z,93.43
2023-04-28T20:54:32.682Z,92.96
2023-04-28T20:57:04.091Z,90.08
2023-04-28T20:59:47.654Z,87.99
2023-04-28T21:02:29.110Z,84.45
2023-04-28T21:05:05.331Z,84.56
2023-04-28T21:07:40.429Z,84.79
2023-04-28T21:10:16.973Z,85.74
2023-04-28T21:12:58.229Z,85.76
2023-04-28T21:15:48.083Z,84.80
2023-04-28T21:18:28.269Z,83.41
2023-04-28T21:21:03.626Z,82.27
2023-04-28T21:23:41.351Z,84.68
2023-04-28T21:26:24.014Z,87.08
2023-04-28T21:28:57.613Z,88.84
2023-04-28T21:31:35.766Z,91.08
2023-04-28T21:34:13.379Z,91.35
2023-04-28T21:36:52.245Z,88.36
2023-04-28T21:39:32.623Z,88.60
2023-04-28T21:42:08.151Z,89.92
2023-04-28T21:44:41.013Z,91.69
2023-04-28T21:47:16.311Z,93.66
2023-04-28T21:49:46.494Z,96.82
2023-04-28T21:52:19.663Z,100.00
2023-04-28T21:54:55.058Z,100.00
2023-04-28T21:57:35.807Z,100.00
2023-04-28T22:00:13.663Z,100.00
2023-04-28T22:02:51.763Z,100.00
2023-04-28T22:05:37.116Z,100.00
2023-04-28T22:08:19.689Z,100.00
2023-04-28T22:10:55.149Z,100.00
2023-04-28T22:13:28.780Z,100.00
2023-04-28T22:16:03.745Z,100.00
2023-04-28T22:18:33.802Z,100.00
2023-04-28T22:21:13.969Z,100.00
2023-04-28T22:23:53.712Z,100.00
2023-04-28T22:26:38.080Z,100.00
2023-04-28T22:29:10.546Z,100.00
2023-04-28T22:31:46.701Z,100.00
2023-04-28T22:34:34.810Z,100.00
2023-04-28T22:37:18.622Z,100.00
2023-04-28T22:39:58.023Z,100.00
2023-04-28T22:42:40.796Z,100.00
2023-04-28T22:45:24.424Z,99.44
2023-04-28T22:47:59.702Z,99.70
2023-04-28T22:50:37.124Z,99.59
2023-04-28T22:53:10.036Z,95.60
2023-04-28T22:55:45.839Z,94.54
2023-04-28T22:58:20.756Z,91.89
2023-04-28T23:00:58.105Z,91.40
2023-04-28T23:03:38.450Z,90.37
2023-04-28T23:06:27.870Z,90.40
2023-04-28T23:09:06.661Z,89.52
2023-04-28T23:11:42.185Z,90.87
2023-04-28T23:14:22.805Z,90.67
2023-04-28T23:16:54.834Z,91.27
2023-04-28T23:19:32.800Z,93.52
2023-04-28T23:22:17.509Z,98.14
2023-04-28T23:24:57.585Z,99.91
2023-04-28T23:27:27.661Z,100.00
2023-04-28T23:30:05.026Z,99.04
2023-04-28T23:32:40.835Z,99.37
2023-04-28T23:35:17.592Z,100.00
2023-04-28T23:37:53.517Z,100.00
2023-04-28T23:40:23.366Z,100.00
2023-04-28T23:42:55.873Z,100.00
2023-04-28T23:45:36.737Z,99.97
2023-04-28T23:48:10.827Z,99.16
2023-04-28T23:50:48.338Z,100.00
2023-04-28T23:53:24.725Z,100.00
2023-04-28T23:56:05.572Z,99.44
2023-04-28T23:58:46.538Z,99.38
